createdAt,value
2022-12-05T00:00:17.075Z,19.92
2022-12-05T00:02:43.468Z,20.67
2022-12-05T00:05:10.561Z,18.73
2022-12-05T00:07:37.001Z,21.10
2022-12-05T00:10:04.223Z,20.38
2022-12-05T00:12:30.529Z,19.50
2022-12-05T00:14:56.968Z,19.13
2022-12-05T00:17:23.481Z,20.40
2022-12-05T00:19:53.680Z,19.50
2022-12-05T00:22:23.166Z,19.77
2022-12-05T00:24:49.474Z,19.30
2022-12-05T00:27:15.800Z,20.02
2022-12-05T00:29:42.313Z,20.08
2022-12-05T00:32:08.736Z,19.77
2022-12-05T00:34:35.116Z,19.17
2022-12-05T00:37:01.460Z,18.25
2022-12-05T00:39:27.724Z,19.65
2022-12-05T00:41:53.992Z,19.20
2022-12-05T00:44:20.291Z,19.13
2022-12-05T00:46:46.617Z,19.15
2022-12-05T00:49:13.107Z,20.13
2022-12-05T00:51:40.872Z,20.02
2022-12-05T00:54:10.204Z,19.17
2022-12-05T00:56:36.685Z,20.20
2022-12-05T00:59:03.679Z,19.38
2022-12-05T01:01:30.260Z,18.33
2022-12-05T01:03:57.454Z,19.80
2022-12-05T01:06:24.426Z,19.77
2022-12-05T01:08:52.652Z,20.48
2022-12-05T01:11:19.437Z,19.40
2022-12-05T01:13:46.324Z,20.25
2022-12-05T01:16:23.877Z,20.73
2022-12-05T01:18:50.533Z,19.00
2022-12-05T01:21:17.076Z,20.25
2022-12-05T01:23:43.593Z,19.23
2022-12-05T01:26:11.082Z,18.45
2022-12-05T01:28:37.709Z,18.75
2022-12-05T01:31:05.851Z,19.05
2022-12-05T01:33:32.668Z,20.05
2022-12-05T01:35:59.105Z,19.58
2022-12-05T01:38:25.483Z,18.67
2022-12-05T01:40:59.759Z,20.30
2022-12-05T01:43:26.093Z,19.73
2022-12-05T01:45:52.718Z,19.65
2022-12-05T01:48:25.624Z,18.50
2022-12-05T01:50:52.097Z,19.00
2022-12-05T01:53:19.407Z,19.33
2022-12-05T01:55:47.367Z,18.77
2022-12-05T01:58:13.914Z,20.00
2022-12-05T02:00:40.297Z,18.63
2022-12-05T02:03:08.198Z,19.02
2022-12-05T02:05:35.702Z,19.10
2022-12-05T02:08:05.462Z,20.98
2022-12-05T02:10:34.841Z,19.63
2022-12-05T02:13:05.988Z,18.65
2022-12-05T02:15:32.377Z,18.05
2022-12-05T02:18:17.357Z,20.52
2022-12-05T02:20:49.562Z,19.52
2022-12-05T02:23:18.856Z,18.85
2022-12-05T02:25:45.123Z,18.70
2022-12-05T02:28:30.274Z,18.48
2022-12-05T02:30:58.714Z,18.05
2022-12-05T02:33:41.695Z,20.73
2022-12-05T02:36:17.020Z,19.85
2022-12-05T02:38:43.271Z,19.08
2022-12-05T02:41:16.776Z,19.05
2022-12-05T02:44:02.368Z,19.30
2022-12-05T02:46:29.959Z,18.38
2022-12-05T02:48:58.525Z,18.92
2022-12-05T02:51:25.910Z,17.75
2022-12-05T02:53:53.256Z,18.42
2022-12-05T02:56:20.474Z,17.30
2022-12-05T02:58:54.019Z,18.27
2022-12-05T03:01:22.711Z,17.73
2022-12-05T03:03:49.283Z,18.52
2022-12-05T03:06:19.385Z,19.88
2022-12-05T03:08:49.133Z,18.85
2022-12-05T03:11:15.698Z,19.08
2022-12-05T03:13:45.742Z,17.77
2022-12-05T03:16:14.852Z,18.83
2022-12-05T03:18:49.122Z,17.02
2022-12-05T03:21:15.664Z,17.73
2022-12-05T03:23:46.155Z,17.35
2022-12-05T03:26:27.065Z,19.20
2022-12-05T03:29:18.341Z,17.40
2022-12-05T03:32:03.426Z,17.33
2022-12-05T03:34:41.668Z,16.77
2022-12-05T03:37:11.187Z,17.98
2022-12-05T03:39:38.117Z,16.73
2022-12-05T03:42:13.296Z,16.33
2022-12-05T03:44:51.592Z,17.83
2022-12-05T03:47:38.157Z,17.17
2022-12-05T03:50:07.681Z,16.10
2022-12-05T03:52:56.926Z,16.25
2022-12-05T03:55:23.583Z,17.05
2022-12-05T03:57:52.510Z,15.75
2022-12-05T04:00:20.120Z,17.13
2022-12-05T04:02:56.120Z,16.13
2022-12-05T04:05:22.564Z,16.73
2022-12-05T04:07:58.514Z,17.00
2022-12-05T04:10:27.854Z,15.13
2022-12-05T04:12:55.769Z,15.50
2022-12-05T04:15:25.140Z,17.27
2022-12-05T04:17:53.686Z,15.90
2022-12-05T04:20:57.186Z,15.88
2022-12-05T04:23:23.753Z,15.18
2022-12-05T04:25:55.004Z,15.63
2022-12-05T04:28:24.052Z,15.48
2022-12-05T04:30:50.493Z,16.45
2022-12-05T04:33:21.093Z,15.73
2022-12-05T04:35:53.728Z,16.85
2022-12-05T04:38:39.225Z,15.52
2022-12-05T04:41:07.508Z,15.70
2022-12-05T04:43:35.502Z,15.27
2022-12-05T04:46:03.599Z,16.92
2022-12-05T04:48:31.068Z,16.23
2022-12-05T04:50:58.233Z,16.35
2022-12-05T04:53:26.306Z,17.17
2022-12-05T04:55:54.244Z,17.67
2022-12-05T04:58:24.449Z,15.57
2022-12-05T05:00:50.806Z,16.80
2022-12-05T05:03:21.205Z,15.93
2022-12-05T05:05:49.591Z,16.42
2022-12-05T05:08:17.245Z,15.57
2022-12-05T05:11:02.225Z,16.95
2022-12-05T05:13:28.526Z,15.35
2022-12-05T05:15:54.817Z,15.60
2022-12-05T05:18:21.245Z,16.50
2022-12-05T05:20:47.553Z,16.30
2022-12-05T05:23:14.581Z,16.52
2022-12-05T05:25:40.851Z,16.88
2022-12-05T05:28:07.107Z,16.80
2022-12-05T05:30:33.438Z,16.45
2022-12-05T05:33:00.420Z,17.58
2022-12-05T05:35:26.683Z,17.33
2022-12-05T05:37:53.178Z,16.42
2022-12-05T05:40:19.569Z,16.75
2022-12-05T05:42:46.906Z,16.50
2022-12-05T05:45:14.094Z,16.73
2022-12-05T05:47:41.207Z,16.23
2022-12-05T05:50:08.516Z,17.50
2022-12-05T05:52:35.564Z,16.85
2022-12-05T05:55:02.245Z,16.95
2022-12-05T05:57:28.629Z,17.08
2022-12-05T05:59:55.088Z,16.00
2022-12-05T06:02:21.613Z,15.98
2022-12-05T06:04:47.964Z,17.98
2022-12-05T06:07:14.487Z,16.65
2022-12-05T06:09:40.828Z,17.08
2022-12-05T06:12:07.276Z,17.48
2022-12-05T06:14:33.608Z,15.85
2022-12-05T06:16:59.960Z,16.88
2022-12-05T06:19:26.328Z,17.08
2022-12-05T06:21:52.604Z,17.42
2022-12-05T06:24:18.869Z,17.35
2022-12-05T06:26:45.200Z,16.92
2022-12-05T06:29:11.501Z,17.02
2022-12-05T06:31:38.266Z,16.83
2022-12-05T06:34:04.803Z,16.17
2022-12-05T06:36:31.465Z,15.95
2022-12-05T06:38:58.448Z,16.70
2022-12-05T06:41:24.968Z,16.52
2022-12-05T06:44:00.191Z,16.60
2022-12-05T06:46:28.261Z,17.52
2022-12-05T06:48:56.345Z,17.85
2022-12-05T06:51:23.168Z,16.67
2022-12-05T06:53:49.534Z,17.02
2022-12-05T06:56:17.007Z,17.55
2022-12-05T06:58:44.216Z,16.77
2022-12-05T07:01:33.013Z,15.70
2022-12-05T07:03:59.504Z,16.23
2022-12-05T07:06:26.332Z,15.75
2022-12-05T07:08:52.735Z,16.58
2022-12-05T07:11:19.088Z,16.33
2022-12-05T07:13:45.352Z,15.60
2022-12-05T07:16:11.799Z,17.33
2022-12-05T07:18:38.235Z,16.73
2022-12-05T07:21:13.776Z,15.75
2022-12-05T07:23:41.164Z,15.35
2022-12-05T07:26:08.264Z,17.10
2022-12-05T07:28:34.532Z,17.25
2022-12-05T07:31:02.071Z,17.25
2022-12-05T07:33:28.915Z,16.08
2022-12-05T07:36:06.033Z,15.52
2022-12-05T07:38:32.369Z,16.83
2022-12-05T07:40:58.736Z,15.15
2022-12-05T07:43:25.119Z,16.02
2022-12-05T07:45:51.460Z,16.25
2022-12-05T07:48:18.908Z,15.20
2022-12-05T07:50:45.490Z,16.05
2022-12-05T07:53:11.856Z,16.15
2022-12-05T07:55:38.373Z,15.65
2022-12-05T07:58:04.746Z,16.88
2022-12-05T08:00:31.374Z,16.55
2022-12-05T08:02:57.808Z,17.88
2022-12-05T08:05:24.111Z,16.80
2022-12-05T08:07:50.479Z,16.02
2022-12-05T08:10:16.845Z,15.75
2022-12-05T08:12:43.191Z,17.55
2022-12-05T08:15:09.742Z,17.17
2022-12-05T08:17:36.008Z,16.77
2022-12-05T08:20:02.582Z,16.77
2022-12-05T08:22:29.329Z,15.25
2022-12-05T08:24:56.457Z,15.65
2022-12-05T08:27:22.970Z,16.52
2022-12-05T08:29:49.321Z,14.63
2022-12-05T08:32:15.896Z,15.90
2022-12-05T08:34:42.434Z,15.30
2022-12-05T08:37:08.771Z,15.40
2022-12-05T08:39:38.788Z,15.25
2022-12-05T08:42:05.388Z,15.23
2022-12-05T08:44:31.717Z,15.20
2022-12-05T08:46:57.988Z,14.50
2022-12-05T08:49:24.234Z,15.05
2022-12-05T08:51:50.575Z,15.73
2022-12-05T08:54:17.108Z,14.70
2022-12-05T08:56:43.613Z,15.25
2022-12-05T08:59:09.944Z,15.98
2022-12-05T09:01:38.460Z,15.48
2022-12-05T09:04:05.550Z,14.20
2022-12-05T09:06:32.291Z,15.82
2022-12-05T09:08:59.893Z,15.23
2022-12-05T09:11:31.223Z,15.20
2022-12-05T09:13:58.088Z,15.27
2022-12-05T09:16:38.071Z,15.50
2022-12-05T09:19:05.678Z,15.60
2022-12-05T09:21:32.236Z,15.18
2022-12-05T09:23:59.120Z,14.43
2022-12-05T09:26:26.449Z,15.13
2022-12-05T09:28:52.983Z,15.00
2022-12-05T09:31:21.386Z,14.70
2022-12-05T09:33:48.677Z,15.18
2022-12-05T09:36:19.928Z,15.18
2022-12-05T09:38:46.619Z,15.23
2022-12-05T09:41:12.840Z,15.02
2022-12-05T09:43:51.280Z,14.70
2022-12-05T09:46:35.888Z,15.73
2022-12-05T09:49:02.658Z,14.52
2022-12-05T09:51:29.631Z,13.60
2022-12-05T09:53:56.010Z,14.95
2022-12-05T09:56:27.469Z,14.77
2022-12-05T09:58:54.902Z,13.98
2022-12-05T10:01:40.731Z,13.95
2022-12-05T10:04:07.121Z,13.10
2022-12-05T10:06:52.610Z,13.40
2022-12-05T10:09:28.214Z,13.60
2022-12-05T10:11:59.661Z,12.65
2022-12-05T10:14:25.946Z,12.38
2022-12-05T10:16:57.212Z,12.82
2022-12-05T10:19:28.757Z,12.73
2022-12-05T10:22:18.902Z,12.88
2022-12-05T10:24:54.010Z,12.52
2022-12-05T10:27:21.971Z,12.43
2022-12-05T10:29:53.577Z,12.23
2022-12-05T10:32:26.341Z,12.93
2022-12-05T10:34:54.701Z,12.50
2022-12-05T10:37:22.145Z,11.77
2022-12-05T10:39:49.522Z,12.10
2022-12-05T10:42:21.959Z,11.80
2022-12-05T10:44:48.839Z,12.50
2022-12-05T10:47:15.218Z,12.50
2022-12-05T10:49:42.251Z,12.68
2022-12-05T10:52:08.789Z,12.05
2022-12-05T10:54:39.635Z,12.90
2022-12-05T10:57:20.579Z,12.75
2022-12-05T10:59:47.381Z,12.00
2022-12-05T11:02:26.402Z,12.65
2022-12-05T11:04:53.294Z,12.15
2022-12-05T11:07:32.238Z,11.88
2022-12-05T11:09:59.941Z,13.73
2022-12-05T11:12:36.472Z,12.38
2022-12-05T11:15:05.539Z,13.05
2022-12-05T11:17:37.829Z,11.77
2022-12-05T11:20:24.138Z,11.77
2022-12-05T11:22:54.253Z,11.82
2022-12-05T11:25:25.868Z,11.52
2022-12-05T11:27:52.465Z,10.63
2022-12-05T11:30:24.430Z,8.25
2022-12-05T11:35:27.659Z,6.68
2022-12-05T11:37:53.912Z,5.82
2022-12-05T11:40:32.733Z,5.65
2022-12-05T11:43:11.240Z,6.10
2022-12-05T11:45:42.384Z,5.35
2022-12-05T11:48:20.891Z,5.40
2022-12-05T11:51:05.981Z,5.78
2022-12-05T11:53:38.502Z,5.57
2022-12-05T11:56:13.977Z,6.43
2022-12-05T11:58:52.501Z,5.20
2022-12-05T12:01:21.197Z,6.00
2022-12-05T12:04:06.144Z,5.18
2022-12-05T12:06:34.252Z,6.30
2022-12-05T12:09:08.942Z,5.78
2022-12-05T12:11:44.988Z,5.13
2022-12-05T12:14:27.161Z,5.50
2022-12-05T12:16:53.524Z,5.38
2022-12-05T12:19:34.676Z,5.25
2022-12-05T12:22:01.161Z,4.72
2022-12-05T12:24:33.410Z,4.82
2022-12-05T12:26:59.808Z,4.75
2022-12-05T12:29:35.181Z,4.82
2022-12-05T12:32:01.589Z,4.47
2022-12-05T12:34:31.135Z,4.45
2022-12-05T12:36:57.551Z,4.45
2022-12-05T12:39:23.841Z,4.38
2022-12-05T12:42:13.364Z,4.43
2022-12-05T12:44:51.853Z,5.43
2022-12-05T12:47:30.337Z,4.50
2022-12-05T12:49:56.610Z,4.50
2022-12-05T12:52:24.329Z,3.90
2022-12-05T12:55:13.689Z,3.40
2022-12-05T12:57:43.106Z,3.92
2022-12-05T13:00:28.260Z,4.03
2022-12-05T13:02:57.209Z,3.90
2022-12-05T13:05:34.763Z,3.50
2022-12-05T13:08:14.863Z,3.90
2022-12-05T13:10:42.748Z,3.55
2022-12-05T13:13:13.586Z,3.58
2022-12-05T13:15:48.787Z,3.70
2022-12-05T13:18:16.727Z,3.33
2022-12-05T13:20:43.657Z,4.57
2022-12-05T13:23:14.500Z,3.20
2022-12-05T13:28:20.112Z,3.20
2022-12-05T13:30:58.588Z,3.08
2022-12-05T13:33:25.925Z,3.35
2022-12-05T13:36:17.431Z,3.63
2022-12-05T13:39:02.670Z,3.30
2022-12-05T13:42:01.076Z,3.90
2022-12-05T13:44:42.927Z,3.67
2022-12-05T13:47:24.848Z,3.72
2022-12-05T13:50:11.376Z,3.40
2022-12-05T13:52:43.468Z,3.80
2022-12-05T13:55:17.467Z,3.63
2022-12-05T13:57:45.807Z,4.13
2022-12-05T14:00:12.102Z,4.43
2022-12-05T14:02:41.598Z,5.20
2022-12-05T14:05:14.020Z,4.47
2022-12-05T14:07:40.460Z,4.97
2022-12-05T14:10:07.410Z,5.03
2022-12-05T14:12:56.909Z,5.40
2022-12-05T14:15:26.371Z,5.28
2022-12-05T14:17:57.486Z,5.35
2022-12-05T14:20:38.885Z,5.78
2022-12-05T14:23:31.293Z,5.22
2022-12-05T14:26:15.477Z,4.22
2022-12-05T14:29:00.701Z,4.47
2022-12-05T14:31:45.711Z,4.47
2022-12-05T14:34:22.431Z,4.03
2022-12-05T14:37:02.547Z,4.15
2022-12-05T14:39:31.902Z,4.00
2022-12-05T14:41:59.490Z,4.15
2022-12-05T14:44:31.904Z,4.10
2022-12-05T14:47:03.018Z,4.88
2022-12-05T14:49:38.056Z,4.88
2022-12-05T14:52:11.960Z,4.65
2022-12-05T14:54:39.392Z,3.72
2022-12-05T14:57:12.210Z,4.55
2022-12-05T14:59:45.060Z,5.20
2022-12-05T15:02:17.862Z,4.72
2022-12-05T15:04:50.597Z,4.38
2022-12-05T15:07:19.023Z,4.90
2022-12-05T15:09:45.369Z,4.22
2022-12-05T15:12:22.777Z,4.45
2022-12-05T15:15:06.649Z,4.97
2022-12-05T15:17:37.979Z,5.65
2022-12-05T15:20:23.338Z,7.03
2022-12-05T15:22:49.729Z,5.70
2022-12-05T15:25:22.252Z,4.82
2022-12-05T15:27:53.241Z,5.45
2022-12-05T15:32:45.852Z,4.25
2022-12-05T15:35:14.975Z,5.38
2022-12-05T15:37:48.013Z,5.53
2022-12-05T15:40:17.708Z,4.63
2022-12-05T15:42:45.879Z,5.57
2022-12-05T15:45:13.150Z,5.00
2022-12-05T15:47:40.295Z,6.13
2022-12-05T15:50:12.428Z,5.38
2022-12-05T15:52:51.253Z,6.35
2022-12-05T15:55:20.937Z,5.82
2022-12-05T15:57:50.419Z,5.22
2022-12-05T16:00:18.236Z,5.60
2022-12-05T16:02:47.643Z,5.28
2022-12-05T16:05:18.385Z,5.22
2022-12-05T16:07:45.132Z,6.03
2022-12-05T16:10:12.367Z,5.90
2022-12-05T16:12:40.169Z,5.65
2022-12-05T16:15:14.854Z,5.28
2022-12-05T16:17:43.171Z,4.78
2022-12-05T16:20:21.904Z,4.80
2022-12-05T16:22:49.622Z,4.40
2022-12-05T16:25:17.667Z,6.45
2022-12-05T16:27:55.385Z,6.30
2022-12-05T16:30:22.577Z,5.35
2022-12-05T16:32:50.349Z,5.47
2022-12-05T16:35:30.405Z,5.28
2022-12-05T16:38:07.341Z,5.80
2022-12-05T16:40:34.062Z,4.85
2022-12-05T16:43:01.104Z,4.90
2022-12-05T16:45:40.737Z,4.88
2022-12-05T16:48:17.640Z,4.70
2022-12-05T16:50:44.287Z,4.90
2022-12-05T16:53:14.884Z,5.57
2022-12-05T16:55:42.818Z,4.65
2022-12-05T16:58:17.575Z,4.22
2022-12-05T17:00:43.932Z,4.43
2022-12-05T17:03:33.418Z,4.88
2022-12-05T17:05:59.164Z,5.10
2022-12-05T17:08:25.754Z,4.93
2022-12-05T17:10:52.564Z,5.50
2022-12-05T17:13:19.571Z,5.03
2022-12-05T17:15:46.407Z,4.47
2022-12-05T17:18:14.432Z,4.97
2022-12-05T17:20:41.390Z,4.78
2022-12-05T17:23:11.077Z,4.93
2022-12-05T17:25:38.471Z,4.93
2022-12-05T17:28:04.814Z,4.53
2022-12-05T17:30:34.183Z,4.43
2022-12-05T17:33:00.526Z,5.00
2022-12-05T17:35:28.048Z,5.43
2022-12-05T17:37:54.380Z,5.85
2022-12-05T17:40:20.823Z,5.78
2022-12-05T17:42:48.564Z,5.75
2022-12-05T17:45:15.670Z,5.38
2022-12-05T17:47:42.608Z,5.05
2022-12-05T17:50:15.843Z,4.70
2022-12-05T17:52:42.452Z,5.18
2022-12-05T17:55:15.757Z,5.55
2022-12-05T17:57:42.122Z,4.78
2022-12-05T18:00:09.397Z,4.93
2022-12-05T18:02:35.740Z,5.07
2022-12-05T18:05:02.110Z,4.30
2022-12-05T18:07:28.507Z,4.25
2022-12-05T18:09:54.795Z,4.47
2022-12-05T18:12:21.383Z,4.70
2022-12-05T18:14:47.801Z,4.78
2022-12-05T18:17:14.428Z,5.10
2022-12-05T18:19:40.710Z,4.95
2022-12-05T18:22:07.020Z,5.00
2022-12-05T18:24:33.370Z,5.30
2022-12-05T18:26:59.717Z,5.22
2022-12-05T18:29:26.014Z,5.20
2022-12-05T18:31:52.474Z,4.97
2022-12-05T18:34:19.050Z,5.55
2022-12-05T18:36:45.398Z,5.93
2022-12-05T18:39:17.612Z,6.18
2022-12-05T18:41:44.002Z,5.22
2022-12-05T18:44:11.254Z,5.20
2022-12-05T18:46:37.657Z,5.40
2022-12-05T18:49:04.636Z,5.50
2022-12-05T18:51:31.338Z,5.60
2022-12-05T18:53:57.757Z,6.30
2022-12-05T18:56:28.796Z,6.38
2022-12-05T18:58:56.971Z,5.65
2022-12-05T19:01:23.527Z,5.05
2022-12-05T19:03:54.627Z,5.57
2022-12-05T19:06:22.285Z,4.97
2022-12-05T19:08:48.827Z,5.15
2022-12-05T19:11:16.079Z,5.35
2022-12-05T19:13:42.612Z,4.63
2022-12-05T19:16:19.508Z,4.47
2022-12-05T19:18:47.248Z,4.80
2022-12-05T19:21:16.667Z,4.65
2022-12-05T19:23:43.140Z,4.88
2022-12-05T19:26:12.164Z,4.80
2022-12-05T19:28:38.823Z,4.47
2022-12-05T19:31:16.211Z,4.28
2022-12-05T19:33:43.852Z,4.30
2022-12-05T19:36:12.135Z,4.38
2022-12-05T19:38:52.202Z,4.70
2022-12-05T19:41:23.384Z,4.50
2022-12-05T19:44:00.317Z,4.40
2022-12-05T19:46:30.665Z,4.88
2022-12-05T19:48:58.110Z,5.28
2022-12-05T19:51:24.793Z,5.10
2022-12-05T19:53:51.288Z,4.82
2022-12-05T19:56:19.168Z,4.65
2022-12-05T19:58:45.633Z,5.00
2022-12-05T20:01:13.922Z,4.88
2022-12-05T20:03:40.625Z,5.10
2022-12-05T20:06:07.996Z,5.43
2022-12-05T20:08:34.913Z,5.55
2022-12-05T20:11:05.870Z,5.15
2022-12-05T20:13:48.263Z,5.65
2022-12-05T20:16:15.667Z,5.28
2022-12-05T20:18:42.170Z,5.95
2022-12-05T20:21:09.856Z,6.38
2022-12-05T20:23:36.277Z,5.85
2022-12-05T20:26:04.933Z,5.60
2022-12-05T20:28:31.551Z,5.63
2022-12-05T20:31:20.801Z,5.80
2022-12-05T20:33:49.267Z,5.85
2022-12-05T20:36:17.999Z,6.22
2022-12-05T20:38:44.820Z,6.60
2022-12-05T20:41:15.186Z,6.18
2022-12-05T20:43:42.135Z,6.88
2022-12-05T20:46:10.582Z,5.50
2022-12-05T20:48:37.172Z,5.50
2022-12-05T20:51:07.300Z,5.80
2022-12-05T20:53:35.710Z,5.10
2022-12-05T20:56:03.095Z,5.53
2022-12-05T20:58:29.419Z,5.70
2022-12-05T21:00:59.582Z,4.95
2022-12-05T21:03:25.924Z,5.30
2022-12-05T21:05:52.210Z,5.18
2022-12-05T21:08:18.584Z,4.82
2022-12-05T21:10:45.348Z,5.18
2022-12-05T21:13:11.594Z,5.22
2022-12-05T21:15:37.930Z,5.55
2022-12-05T21:18:04.323Z,5.63
2022-12-05T21:20:30.655Z,5.55
2022-12-05T21:22:57.028Z,5.20
2022-12-05T21:25:23.394Z,5.43
2022-12-05T21:27:49.705Z,6.03
2022-12-05T21:30:16.439Z,5.70
2022-12-05T21:32:43.052Z,5.38
2022-12-05T21:35:10.753Z,5.65
2022-12-05T21:37:37.602Z,5.97
2022-12-05T21:40:04.706Z,5.55
2022-12-05T21:42:31.093Z,4.78
2022-12-05T21:44:57.810Z,5.25
2022-12-05T21:47:24.543Z,5.25
2022-12-05T21:49:50.886Z,4.82
2022-12-05T21:52:17.200Z,5.13
2022-12-05T21:54:43.513Z,5.32
2022-12-05T21:57:09.957Z,5.50
2022-12-05T21:59:36.212Z,4.75
2022-12-05T22:02:02.725Z,4.72
2022-12-05T22:04:29.056Z,4.55
2022-12-05T22:06:55.400Z,6.18
2022-12-05T22:09:21.729Z,5.55
2022-12-05T22:11:48.261Z,4.82
2022-12-05T22:14:14.627Z,4.38
2022-12-05T22:16:40.956Z,4.53
2022-12-05T22:19:07.363Z,4.70
2022-12-05T22:21:36.722Z,4.80
2022-12-05T22:24:03.051Z,4.97
2022-12-05T22:26:29.327Z,3.72
2022-12-05T22:28:56.690Z,3.80
2022-12-05T22:31:24.242Z,3.90
2022-12-05T22:33:50.627Z,4.30
2022-12-05T22:36:17.964Z,3.70
2022-12-05T22:38:45.267Z,4.03
2022-12-05T22:41:15.712Z,3.67
2022-12-05T22:43:43.042Z,4.18
2022-12-05T22:46:17.875Z,4.45
2022-12-05T22:48:45.047Z,4.10
2022-12-05T22:51:11.906Z,3.53
2022-12-05T22:53:38.655Z,4.18
2022-12-05T22:56:06.264Z,3.67
2022-12-05T22:58:32.926Z,3.97
2022-12-05T23:01:07.967Z,3.45
2022-12-05T23:03:34.405Z,3.53
2022-12-05T23:06:06.902Z,3.30
2022-12-05T23:08:38.094Z,3.67
2022-12-05T23:11:05.118Z,3.40
2022-12-05T23:13:32.011Z,3.80
2022-12-05T23:15:58.635Z,3.70
2022-12-05T23:18:25.284Z,3.80
2022-12-05T23:20:51.626Z,4.00
2022-12-05T23:23:17.921Z,3.92
2022-12-05T23:25:44.411Z,3.85
2022-12-05T23:28:10.988Z,3.72
2022-12-05T23:30:37.639Z,3.95
2022-12-05T23:33:04.040Z,3.67
2022-12-05T23:35:30.352Z,4.00
2022-12-05T23:37:56.637Z,3.97
2022-12-05T23:40:23.028Z,4.15
2022-12-05T23:42:49.439Z,3.80
2022-12-05T23:45:15.737Z,3.95
2022-12-05T23:47:42.119Z,3.40
2022-12-05T23:50:08.812Z,3.80
2022-12-05T23:52:35.996Z,3.90
2022-12-05T23:55:02.316Z,4.72
2022-12-05T23:57:28.637Z,4.20
2022-12-05T23:59:55.044Z,4.20
